createdAt,value
2018-04-02T00:01:35.953Z,98153.69
2018-04-02T00:04:03.455Z,98159.81
2018-04-02T00:06:30.959Z,98159.36
2018-04-02T00:08:58.460Z,98157.27
2018-04-02T00:11:26.032Z,98151.14
2018-04-02T00:13:53.783Z,98150.64
2018-04-02T00:16:21.637Z,98146.31
2018-04-02T00:18:49.453Z,98146.68
2018-04-02T00:21:16.962Z,98141.85
2018-04-02T00:23:44.730Z,98137.94
2018-04-02T00:26:12.341Z,98134.17
2018-04-02T00:28:39.884Z,98142.65
2018-04-02T00:31:07.395Z,98141.98
2018-04-02T00:33:34.894Z,98140.80
2018-04-02T00:36:02.392Z,98135.02
2018-04-02T00:38:29.890Z,98133.24
2018-04-02T00:40:59.480Z,98129.88
2018-04-02T00:43:27.067Z,98129.02
2018-04-02T00:45:54.573Z,98124.88
2018-04-02T00:48:22.083Z,98123.27
2018-04-02T00:50:49.591Z,98129.20
2018-04-02T00:53:17.103Z,98123.46
2018-04-02T00:55:44.671Z,98113.38
2018-04-02T00:58:12.166Z,98120.43
2018-04-02T01:00:39.684Z,98124.38
2018-04-02T01:03:07.191Z,98122.66
2018-04-02T01:05:34.715Z,98121.19
2018-04-02T01:08:02.254Z,98115.22
2018-04-02T01:10:29.775Z,98117.88
2018-04-02T01:12:57.283Z,98114.00
2018-04-02T01:15:24.782Z,98122.30
2018-04-02T01:17:52.282Z,98110.55
2018-04-02T01:20:19.830Z,98113.19
2018-04-02T01:22:47.349Z,98102.88
2018-04-02T01:25:15.011Z,98107.67
2018-04-02T01:27:42.984Z,98114.84
2018-04-02T01:30:10.487Z,98108.98
2018-04-02T01:32:37.995Z,98111.67
2018-04-02T01:35:05.561Z,98103.25
2018-04-02T01:37:33.174Z,98104.66
2018-04-02T01:40:00.729Z,98104.72
2018-04-02T01:42:28.237Z,98102.17
2018-04-02T01:44:55.753Z,98100.01
2018-04-02T01:47:23.256Z,98093.20
2018-04-02T01:49:50.748Z,98092.44
2018-04-02T01:52:18.248Z,98092.55
2018-04-02T01:54:45.768Z,98092.06
2018-04-02T01:57:13.845Z,98088.72
2018-04-02T01:59:41.399Z,98077.51
2018-04-02T02:02:08.909Z,98081.90
2018-04-02T02:04:36.554Z,98079.73
2018-04-02T02:07:04.075Z,98081.20
2018-04-02T02:09:31.569Z,98085.63
2018-04-02T02:11:59.096Z,98080.48
2018-04-02T02:14:26.599Z,98077.95
2018-04-02T02:16:54.162Z,98079.87
2018-04-02T02:19:21.675Z,98079.02
2018-04-02T02:21:49.205Z,98078.25
2018-04-02T02:24:16.691Z,98076.53
2018-04-02T02:26:44.199Z,98074.13
2018-04-02T02:29:11.722Z,98070.35
2018-04-02T02:31:39.239Z,98073.91
2018-04-02T02:34:06.734Z,98069.77
2018-04-02T02:36:34.236Z,98066.18
2018-04-02T02:39:01.751Z,98066.41
2018-04-02T02:41:29.255Z,98054.84
2018-04-02T02:43:56.757Z,98051.92
2018-04-02T02:46:24.261Z,98050.37
2018-04-02T02:48:51.773Z,98041.87
2018-04-02T02:51:19.343Z,98042.91
2018-04-02T02:53:46.877Z,98056.34
2018-04-02T02:56:14.385Z,98056.00
2018-04-02T02:58:41.896Z,98057.73
2018-04-02T03:01:09.434Z,98050.95
2018-04-02T03:03:37.214Z,98049.70
2018-04-02T03:06:04.704Z,98052.38
2018-04-02T03:08:32.213Z,98049.01
2018-04-02T03:10:59.701Z,98046.42
2018-04-02T03:13:27.250Z,98049.87
2018-04-02T03:15:54.806Z,98048.22
2018-04-02T03:18:22.320Z,98043.05
2018-04-02T03:20:49.820Z,98044.34
2018-04-02T03:23:17.444Z,98047.63
2018-04-02T03:25:44.947Z,98045.59
2018-04-02T03:28:12.484Z,98053.83
2018-04-02T03:30:39.997Z,98049.91
2018-04-02T03:33:07.508Z,98042.66
2018-04-02T03:35:35.012Z,98044.42
2018-04-02T03:38:02.498Z,98046.27
2018-04-02T03:40:30.386Z,98045.88
2018-04-02T03:42:57.875Z,98041.25
2018-04-02T03:45:25.430Z,98047.38
2018-04-02T03:47:52.935Z,98040.08
2018-04-02T03:50:20.430Z,98047.92
2018-04-02T03:52:47.930Z,98038.44
2018-04-02T03:55:15.448Z,98035.84
2018-04-02T03:57:43.045Z,98038.47
2018-04-02T04:00:10.548Z,98040.66
2018-04-02T04:02:38.059Z,98037.33
2018-04-02T04:05:05.548Z,98035.25
2018-04-02T04:07:33.164Z,98029.72
2018-04-02T04:10:00.670Z,98031.98
2018-04-02T04:12:28.216Z,98027.71
2018-04-02T04:14:55.724Z,98028.22
2018-04-02T04:17:23.193Z,98032.56
2018-04-02T04:19:50.688Z,98031.70
2018-04-02T04:22:18.206Z,98030.77
2018-04-02T04:24:45.715Z,98029.51
2018-04-02T04:27:13.343Z,98029.05
2018-04-02T04:29:40.859Z,98022.65
2018-04-02T04:32:08.349Z,98024.02
2018-04-02T04:34:35.858Z,98026.09
2018-04-02T04:37:03.362Z,98019.27
2018-04-02T04:39:30.869Z,98022.79
2018-04-02T04:41:58.379Z,98024.12
2018-04-02T04:44:25.877Z,98022.00
2018-04-02T04:46:53.392Z,98017.62
2018-04-02T04:49:21.089Z,98020.23
2018-04-02T04:51:48.580Z,98023.29
2018-04-02T04:54:16.209Z,98018.22
2018-04-02T04:56:43.681Z,98019.52
2018-04-02T04:59:11.252Z,98025.05
2018-04-02T05:01:38.735Z,98025.45
2018-04-02T05:04:06.241Z,98020.77
2018-04-02T05:06:33.731Z,98025.52
2018-04-02T05:09:01.233Z,98022.10
2018-04-02T05:11:28.745Z,98019.12
2018-04-02T05:13:56.243Z,98024.69
2018-04-02T05:16:23.742Z,98024.66
2018-04-02T05:18:51.239Z,98027.67
2018-04-02T05:21:18.771Z,98030.19
2018-04-02T05:23:46.251Z,98020.27
2018-04-02T05:26:13.767Z,98027.45
2018-04-02T05:28:41.261Z,98031.66
2018-04-02T05:31:08.797Z,98025.55
2018-04-02T05:33:36.281Z,98024.70
2018-04-02T05:36:03.785Z,98025.09
2018-04-02T05:38:31.283Z,98024.16
2018-04-02T05:40:58.782Z,98023.97
2018-04-02T05:43:26.300Z,98022.52
2018-04-02T05:45:53.782Z,98019.02
2018-04-02T05:48:21.289Z,98020.16
2018-04-02T05:50:48.839Z,98021.84
2018-04-02T05:53:16.346Z,98015.64
2018-04-02T05:55:43.845Z,98017.67
2018-04-02T05:58:11.346Z,98010.17
2018-04-02T06:00:38.836Z,98009.52
2018-04-02T06:03:06.322Z,98008.00
2018-04-02T06:05:33.878Z,98007.33
2018-04-02T06:08:01.344Z,98005.03
2018-04-02T06:10:28.843Z,97999.18
2018-04-02T06:12:56.338Z,98006.91
2018-04-02T06:15:23.853Z,98004.77
2018-04-02T06:17:51.333Z,98004.39
2018-04-02T06:20:18.825Z,97998.47
2018-04-02T06:22:46.324Z,97992.12
2018-04-02T06:25:14.035Z,97998.72
2018-04-02T06:27:42.015Z,97992.50
2018-04-02T06:30:09.501Z,97992.86
2018-04-02T06:32:37.005Z,97988.26
2018-04-02T06:35:04.484Z,97978.63
2018-04-02T06:37:31.984Z,97981.87
2018-04-02T06:39:59.477Z,97985.05
2018-04-02T06:42:27.025Z,97989.23
2018-04-02T06:44:54.526Z,97989.62
2018-04-02T06:47:22.123Z,97988.09
2018-04-02T06:49:49.675Z,97991.52
2018-04-02T06:52:17.185Z,97989.33
2018-04-02T06:54:44.755Z,97990.20
2018-04-02T06:57:12.238Z,97982.97
2018-04-02T06:59:39.756Z,97981.23
2018-04-02T07:02:07.252Z,97982.38
2018-04-02T07:04:34.883Z,97974.80
2018-04-02T07:07:02.339Z,97968.54
2018-04-02T07:09:29.835Z,97963.89
2018-04-02T07:11:57.568Z,97960.19
2018-04-02T07:14:25.043Z,97962.69
2018-04-02T07:16:52.540Z,97957.64
2018-04-02T07:19:20.065Z,97959.43
2018-04-02T07:21:47.876Z,97962.17
2018-04-02T07:24:15.401Z,97958.06
2018-04-02T07:26:43.053Z,97960.70
2018-04-02T07:29:10.569Z,97952.73
2018-04-02T07:31:38.060Z,97955.75
2018-04-02T07:34:05.672Z,97958.16
2018-04-02T07:36:33.167Z,97961.08
2018-04-02T07:39:00.668Z,97966.56
2018-04-02T07:41:28.155Z,97948.31
2018-04-02T07:43:55.803Z,97949.72
2018-04-02T07:46:23.364Z,97951.53
2018-04-02T07:48:50.887Z,97950.55
2018-04-02T07:51:18.385Z,97949.87
2018-04-02T07:53:45.887Z,97951.30
2018-04-02T07:56:13.408Z,97943.61
2018-04-02T07:58:40.896Z,97949.89
2018-04-02T08:01:08.431Z,97947.84
2018-04-02T08:03:36.010Z,97947.70
2018-04-02T08:06:03.517Z,97948.04
2018-04-02T08:08:31.107Z,97947.94
2018-04-02T08:10:58.597Z,97949.17
2018-04-02T08:13:26.071Z,97944.05
2018-04-02T08:15:53.590Z,97937.66
2018-04-02T08:18:21.099Z,97937.61
2018-04-02T08:20:48.612Z,97930.36
2018-04-02T08:23:16.281Z,97927.50
2018-04-02T08:25:44.884Z,97925.43
2018-04-02T08:28:13.282Z,97929.47
2018-04-02T08:30:40.833Z,97934.52
2018-04-02T08:33:13.177Z,97929.77
2018-04-02T08:35:40.757Z,97920.94
2018-04-02T08:38:08.231Z,97922.44
2018-04-02T08:40:35.728Z,97929.00
2018-04-02T08:43:03.257Z,97921.27
2018-04-02T08:45:30.784Z,97920.02
2018-04-02T08:47:58.263Z,97915.13
2018-04-02T08:50:25.856Z,97915.41
2018-04-02T08:52:53.453Z,97899.59
2018-04-02T08:55:20.944Z,97896.59
2018-04-02T08:57:48.453Z,97888.72
2018-04-02T09:00:16.080Z,97888.98
2018-04-02T09:02:44.653Z,97887.78
2018-04-02T09:05:12.166Z,97881.91
2018-04-02T09:07:39.823Z,97879.96
2018-04-02T09:10:07.912Z,97879.60
2018-04-02T09:12:36.571Z,97884.27
2018-04-02T09:15:04.232Z,97879.24
2018-04-02T09:17:31.743Z,97879.22
2018-04-02T09:19:59.236Z,97875.13
2018-04-02T09:22:26.832Z,97870.96
2018-04-02T09:24:54.395Z,97867.95
2018-04-02T09:27:21.911Z,97867.02
2018-04-02T09:29:49.403Z,97862.62
2018-04-02T09:32:17.228Z,97863.86
2018-04-02T09:34:44.721Z,97861.52
2018-04-02T09:37:12.200Z,97857.91
2018-04-02T09:39:39.716Z,97857.82
2018-04-02T09:42:07.240Z,97848.14
2018-04-02T09:44:34.770Z,97857.95
2018-04-02T09:47:02.256Z,97859.63
2018-04-02T09:49:29.731Z,97854.80
2018-04-02T09:51:57.443Z,97853.36
2018-04-02T09:54:24.942Z,97849.69
2018-04-02T09:56:52.441Z,97840.58
2018-04-02T09:59:19.949Z,97844.66
2018-04-02T10:01:47.734Z,97837.17
2018-04-02T10:04:15.342Z,97838.80
2018-04-02T10:06:42.860Z,97842.19
2018-04-02T10:09:10.351Z,97829.95
2018-04-02T10:11:37.855Z,97815.83
2018-04-02T10:14:05.340Z,97810.45
2018-04-02T10:16:32.870Z,97800.22
2018-04-02T10:19:00.371Z,97801.09
2018-04-02T10:21:27.899Z,97796.16
2018-04-02T10:23:55.467Z,97788.16
2018-04-02T10:26:23.077Z,97778.75
2018-04-02T10:28:50.580Z,97775.56
2018-04-02T10:31:18.103Z,97776.98
2018-04-02T10:33:45.742Z,97769.61
2018-04-02T10:36:13.892Z,97775.76
2018-04-02T10:38:41.466Z,97761.59
2018-04-02T10:41:08.972Z,97763.66
2018-04-02T10:43:36.564Z,97764.47
2018-04-02T10:46:04.084Z,97753.19
2018-04-02T10:48:31.631Z,97743.75
2018-04-02T10:50:59.829Z,97739.89
2018-04-02T10:53:27.344Z,97727.59
2018-04-02T10:55:54.891Z,97722.38
2018-04-02T10:58:22.404Z,97712.83
2018-04-02T11:00:49.967Z,97701.73
2018-04-02T11:03:17.490Z,97704.70
2018-04-02T11:05:44.989Z,97702.91
2018-04-02T11:08:12.518Z,97691.80
2018-04-02T11:10:39.995Z,97688.06
2018-04-02T11:13:07.551Z,97686.68
2018-04-02T11:15:35.043Z,97685.88
2018-04-02T11:18:02.632Z,97685.81
2018-04-02T11:20:30.130Z,97681.88
2018-04-02T11:22:57.685Z,97675.36
2018-04-02T11:25:25.263Z,97673.69
2018-04-02T11:27:52.782Z,97661.53
2018-04-02T11:30:20.275Z,97672.47
2018-04-02T11:32:47.793Z,97658.08
2018-04-02T11:35:16.400Z,97647.63
2018-04-02T11:37:43.905Z,97645.56
2018-04-02T11:40:11.491Z,97640.88
2018-04-02T11:42:38.993Z,97640.67
2018-04-02T11:45:06.584Z,97632.72
2018-04-02T11:47:34.047Z,97637.97
2018-04-02T11:50:01.556Z,97637.84
2018-04-02T11:52:29.044Z,97637.85
2018-04-02T11:54:56.552Z,97633.08
2018-04-02T11:57:24.070Z,97636.58
2018-04-02T11:59:51.625Z,97635.38
2018-04-02T12:02:19.131Z,97632.25
2018-04-02T12:04:46.610Z,97629.89
2018-04-02T12:07:14.506Z,97612.89
2018-04-02T12:09:42.125Z,97610.05
2018-04-02T12:12:09.686Z,97607.28
2018-04-02T12:14:37.168Z,97600.57
2018-04-02T12:17:04.683Z,97592.06
2018-04-02T12:19:32.236Z,97594.80
2018-04-02T12:21:59.716Z,97590.98
2018-04-02T12:24:39.629Z,97589.69
2018-04-02T12:27:09.016Z,97588.84
2018-04-02T12:29:36.677Z,97591.84
2018-04-02T12:32:04.212Z,97582.28
2018-04-02T12:34:31.751Z,97578.14
2018-04-02T12:36:59.240Z,97574.94
2018-04-02T12:39:26.930Z,97570.97
2018-04-02T12:41:54.440Z,97562.66
2018-04-02T12:44:21.946Z,97558.00
2018-04-02T12:46:49.450Z,97555.55
2018-04-02T12:49:17.053Z,97546.25
2018-04-02T12:51:44.539Z,97547.91
2018-04-02T12:54:12.042Z,97545.11
2018-04-02T12:56:39.921Z,97542.50
2018-04-02T12:59:07.414Z,97526.56
2018-04-02T13:01:34.929Z,97528.78
2018-04-02T13:04:02.606Z,97531.17
2018-04-02T13:06:30.102Z,97515.55
2018-04-02T13:08:57.603Z,97519.31
2018-04-02T13:11:25.094Z,97516.78
2018-04-02T13:13:52.637Z,97512.30
2018-04-02T13:16:20.948Z,97505.56
2018-04-02T13:18:48.463Z,97498.16
2018-04-02T13:21:15.959Z,97499.72
2018-04-02T13:23:43.454Z,97492.67
2018-04-02T13:26:10.940Z,97481.93
2018-04-02T13:28:38.404Z,97488.02
2018-04-02T13:31:05.910Z,97478.50
2018-04-02T13:33:33.618Z,97468.01
2018-04-02T13:36:01.101Z,97469.53
2018-04-02T13:38:28.614Z,97473.51
2018-04-02T13:40:56.119Z,97469.11
2018-04-02T13:43:23.610Z,97469.19
2018-04-02T13:45:51.097Z,97467.39
2018-04-02T13:48:18.719Z,97460.65
2018-04-02T13:50:46.235Z,97460.92
2018-04-02T13:53:13.715Z,97458.68
2018-04-02T13:55:41.218Z,97458.57
2018-04-02T13:58:08.772Z,97444.99
2018-04-02T14:00:36.254Z,97459.17
2018-04-02T14:03:03.776Z,97446.69
2018-04-02T14:05:31.301Z,97448.77
2018-04-02T14:07:58.797Z,97447.09
2018-04-02T14:10:26.308Z,97446.56
2018-04-02T14:12:53.810Z,97444.30
2018-04-02T14:15:21.301Z,97438.02
2018-04-02T14:17:48.795Z,97432.30
2018-04-02T14:20:16.319Z,97429.05
2018-04-02T14:22:43.828Z,97418.78
2018-04-02T14:25:11.287Z,97416.25
2018-04-02T14:27:38.859Z,97415.02
2018-04-02T14:30:06.402Z,97417.84
2018-04-02T14:32:33.922Z,97421.09
2018-04-02T14:35:01.401Z,97405.45
2018-04-02T14:37:28.902Z,97411.54
2018-04-02T14:39:56.424Z,97411.30
2018-04-02T14:42:23.919Z,97406.92
2018-04-02T14:44:51.459Z,97402.66
2018-04-02T14:47:20.326Z,97396.13
2018-04-02T14:49:48.998Z,97392.16
2018-04-02T14:52:16.530Z,97388.79
2018-04-02T14:54:44.098Z,97385.34
2018-04-02T14:57:11.902Z,97377.54
2018-04-02T14:59:39.410Z,97372.93
2018-04-02T15:02:06.881Z,97368.45
2018-04-02T15:04:34.708Z,97366.35
2018-04-02T15:07:02.195Z,97370.63
2018-04-02T15:09:29.673Z,97370.48
2018-04-02T15:11:57.178Z,97365.92
2018-04-02T15:14:25.572Z,97359.80
2018-04-02T15:16:53.080Z,97358.17
2018-04-02T15:19:20.555Z,97354.67
2018-04-02T15:21:48.329Z,97349.21
2018-04-02T15:24:15.817Z,97345.16
2018-04-02T15:26:43.975Z,97340.52
2018-04-02T15:29:11.510Z,97337.27
2018-04-02T15:31:39.017Z,97333.19
2018-04-02T15:34:06.524Z,97337.39
2018-04-02T15:36:34.000Z,97336.83
2018-04-02T15:39:01.596Z,97334.10
2018-04-02T15:41:29.085Z,97328.17
2018-04-02T15:43:56.580Z,97325.50
2018-04-02T15:46:24.078Z,97320.22
2018-04-02T15:48:51.584Z,97316.81
2018-04-02T15:51:19.151Z,97308.23
2018-04-02T15:53:46.644Z,97310.66
2018-04-02T15:56:17.260Z,97306.45
2018-04-02T15:58:44.757Z,97306.80
2018-04-02T16:01:13.462Z,97300.83
2018-04-02T16:03:40.954Z,97297.50
2018-04-02T16:06:08.479Z,97298.92
2018-04-02T16:08:35.972Z,97297.77
2018-04-02T16:11:03.504Z,97292.27
2018-04-02T16:13:31.043Z,97291.92
2018-04-02T16:15:58.650Z,97298.98
2018-04-02T16:18:26.253Z,97300.41
2018-04-02T16:20:53.911Z,97296.51
2018-04-02T16:23:22.881Z,97297.89
2018-04-02T16:25:50.381Z,97287.47
2018-04-02T16:28:18.088Z,97282.53
2018-04-02T16:30:45.651Z,97276.55
2018-04-02T16:33:13.192Z,97281.52
2018-04-02T16:35:40.765Z,97286.06
2018-04-02T16:40:58.572Z,97277.63
2018-04-02T16:43:26.188Z,97279.36
2018-04-02T16:45:54.113Z,97284.31
2018-04-02T16:48:21.892Z,97283.41
2018-04-02T16:50:49.637Z,97284.22
2018-04-02T16:53:17.434Z,97283.32
2018-04-02T16:55:49.022Z,97284.22
2018-04-02T16:58:32.384Z,97279.03
2018-04-02T17:01:00.703Z,97276.64
2018-04-02T17:03:28.172Z,97286.81
2018-04-02T17:06:02.340Z,97277.65
2018-04-02T17:08:29.868Z,97279.33
2018-04-02T17:10:57.358Z,97273.67
2018-04-02T17:13:24.832Z,97271.41
2018-04-02T17:15:52.323Z,97276.69
2018-04-02T17:18:19.818Z,97271.24
2018-04-02T17:20:47.381Z,97265.30
2018-04-02T17:23:15.121Z,97259.11
2018-04-02T17:25:42.627Z,97254.23
2018-04-02T17:28:10.131Z,97237.81
2018-04-02T17:30:37.641Z,97245.45
2018-04-02T17:33:05.124Z,97236.06
2018-04-02T17:35:32.634Z,97238.48
2018-04-02T17:38:00.207Z,97239.97
2018-04-02T17:40:28.707Z,97234.55
2018-04-02T17:42:57.816Z,97236.64
2018-04-02T17:45:25.438Z,97230.85
2018-04-02T17:47:53.044Z,97234.23
2018-04-02T17:50:21.144Z,97235.53
2018-04-02T17:52:48.740Z,97239.65
2018-04-02T17:55:20.233Z,97233.28
2018-04-02T17:57:47.723Z,97237.94
2018-04-02T18:00:15.354Z,97234.41
2018-04-02T18:02:46.188Z,97228.17
2018-04-02T18:05:14.266Z,97219.54
2018-04-02T18:07:42.118Z,97215.95
2018-04-02T18:10:09.631Z,97204.72
2018-04-02T18:12:40.641Z,97204.37
2018-04-02T18:15:08.297Z,97196.03
2018-04-02T18:17:35.922Z,97185.23
2018-04-02T18:20:03.493Z,97174.38
2018-04-02T18:22:31.039Z,97165.05
2018-04-02T18:25:00.727Z,97164.61
2018-04-02T18:27:28.429Z,97163.16
2018-04-02T18:29:55.924Z,97173.56
2018-04-02T18:32:23.942Z,97172.58
2018-04-02T18:34:57.063Z,97175.83
2018-04-02T18:37:24.681Z,97182.93
2018-04-02T18:39:52.205Z,97178.67
2018-04-02T18:42:20.781Z,97179.45
2018-04-02T18:44:48.927Z,97180.89
2018-04-02T18:47:21.250Z,97170.64
2018-04-02T18:49:51.864Z,97176.89
2018-04-02T18:52:35.624Z,97175.80
2018-04-02T18:55:03.085Z,97185.45
2018-04-02T18:57:30.656Z,97179.58
2018-04-02T18:59:58.346Z,97186.48
2018-04-02T19:02:25.903Z,97186.39
2018-04-02T19:04:53.350Z,97176.50
2018-04-02T19:07:20.792Z,97179.06
2018-04-02T19:09:48.273Z,97188.37
2018-04-02T19:12:17.920Z,97193.41
2018-04-02T19:14:45.448Z,97197.81
2018-04-02T19:17:12.998Z,97204.52
2018-04-02T19:19:40.558Z,97200.45
2018-04-02T19:22:08.022Z,97218.27
2018-04-02T19:24:35.465Z,97218.36
2018-04-02T19:27:02.965Z,97213.73
2018-04-02T19:29:30.440Z,97212.17
2018-04-02T19:31:57.929Z,97215.33
2018-04-02T19:34:25.357Z,97212.58
2018-04-02T19:36:52.829Z,97212.08
2018-04-02T19:44:08.098Z,97218.08
2018-04-02T19:46:35.579Z,97228.82
2018-04-02T19:49:03.013Z,97236.13
2018-04-02T19:51:30.791Z,97239.09
2018-04-02T19:53:58.276Z,97240.74
2018-04-02T19:56:25.737Z,97245.83
2018-04-02T19:58:53.212Z,97244.06
2018-04-02T20:01:20.751Z,97228.22
2018-04-02T20:03:48.288Z,97206.63
2018-04-02T20:06:15.727Z,97204.91
2018-04-02T20:08:43.385Z,97218.23
2018-04-02T20:11:10.968Z,97209.09
2018-04-02T20:13:38.545Z,97204.04
2018-04-02T20:18:39.681Z,97182.01
2018-04-02T20:21:07.268Z,97178.75
2018-04-02T20:23:34.934Z,97175.47
2018-04-02T20:26:02.430Z,97172.11
2018-04-02T20:28:29.918Z,97168.65
2018-04-02T20:30:57.362Z,97179.20
2018-04-02T20:33:24.927Z,97172.66
2018-04-02T20:35:52.504Z,97178.38
2018-04-02T20:38:19.941Z,97180.68
2018-04-02T20:40:47.414Z,97186.33
2018-04-02T20:43:15.113Z,97191.18
2018-04-02T20:45:42.547Z,97197.47
2018-04-02T20:48:09.985Z,97197.00
2018-04-02T20:50:37.473Z,97202.82
2018-04-02T20:53:04.905Z,97221.92
2018-04-02T20:55:32.631Z,97216.99
2018-04-02T20:58:00.235Z,97222.86
2018-04-02T21:00:27.734Z,97224.11
2018-04-02T21:02:55.177Z,97220.47
2018-04-02T21:05:22.855Z,97218.57
2018-04-02T21:07:50.496Z,97215.98
2018-04-02T21:10:19.086Z,97226.58
2018-04-02T21:12:46.588Z,97212.08
2018-04-02T21:15:14.021Z,97238.78
2018-04-02T21:17:41.709Z,97214.73
2018-04-02T21:20:09.218Z,97237.09
2018-04-02T21:22:36.666Z,97230.86
2018-04-02T21:25:04.150Z,97238.84
2018-04-02T21:27:31.574Z,97244.59
2018-04-02T21:29:59.081Z,97232.83
2018-04-02T21:32:26.528Z,97233.45
2018-04-02T21:34:53.954Z,97224.09
2018-04-02T21:37:38.082Z,97240.67
2018-04-02T21:40:06.536Z,97238.29
2018-04-02T21:42:34.297Z,97241.87
2018-04-02T21:45:01.771Z,97237.38
2018-04-02T21:47:29.304Z,97229.94
2018-04-02T21:49:56.782Z,97239.41
2018-04-02T21:52:25.174Z,97231.42
2018-04-02T21:54:53.373Z,97241.29
2018-04-02T21:57:20.966Z,97237.11
2018-04-02T21:59:48.406Z,97233.08
2018-04-02T22:02:15.859Z,97241.37
2018-04-02T22:04:43.317Z,97221.44
2018-04-02T22:07:10.741Z,97215.82
2018-04-02T22:09:38.178Z,97224.34
2018-04-02T22:12:05.627Z,97203.88
2018-04-02T22:14:33.063Z,97207.45
2018-04-02T22:17:00.494Z,97200.17
2018-04-02T22:19:27.933Z,97202.87
2018-04-02T22:21:55.363Z,97213.03
2018-04-02T22:24:22.793Z,97217.47
2018-04-02T22:26:50.259Z,97220.31
2018-04-02T22:29:17.693Z,97208.31
2018-04-02T22:31:45.121Z,97197.75
2018-04-02T22:34:12.553Z,97179.95
2018-04-02T22:36:40.027Z,97177.31
2018-04-02T22:39:07.526Z,97170.52
2018-04-02T22:41:34.967Z,97171.47
2018-04-02T22:44:08.531Z,97176.61
2018-04-02T22:46:35.976Z,97178.67
2018-04-02T22:49:03.426Z,97165.91
2018-04-02T22:51:31.194Z,97177.30
2018-04-02T22:53:58.878Z,97192.53
2018-04-02T22:56:26.769Z,97189.52
2018-04-02T22:58:54.197Z,97188.09
2018-04-02T23:01:21.682Z,97189.25
2018-04-02T23:03:49.144Z,97192.45
2018-04-02T23:06:16.602Z,97193.72
2018-04-02T23:08:44.135Z,97194.19
2018-04-02T23:11:11.568Z,97193.34
2018-04-02T23:13:39.007Z,97194.11
2018-04-02T23:16:06.506Z,97199.16
2018-04-02T23:18:33.950Z,97206.08
2018-04-02T23:21:01.484Z,97213.98
2018-04-02T23:23:28.924Z,97217.41
2018-04-02T23:25:56.349Z,97221.43
2018-04-02T23:28:23.801Z,97229.84
2018-04-02T23:30:51.244Z,97224.36
2018-04-02T23:33:18.690Z,97219.69
2018-04-02T23:35:46.197Z,97230.04
2018-04-02T23:38:13.621Z,97223.97
2018-04-02T23:40:41.078Z,97221.37
2018-04-02T23:43:08.517Z,97218.75
2018-04-02T23:45:35.957Z,97234.51
2018-04-02T23:48:03.381Z,97229.69
2018-04-02T23:50:30.836Z,97245.53
2018-04-02T23:52:58.261Z,97227.99
2018-04-02T23:55:25.691Z,97236.03
2018-04-02T23:57:53.132Z,97257.31
